createdAt,value
2018-07-04T00:02:03.054Z,18.60
2018-07-04T00:04:42.717Z,18.60
2018-07-04T00:07:22.306Z,18.50
2018-07-04T00:10:01.967Z,18.50
2018-07-04T00:12:41.606Z,18.50
2018-07-04T00:15:21.305Z,18.50
2018-07-04T00:18:00.787Z,18.50
2018-07-04T00:20:41.380Z,18.50
2018-07-04T00:23:20.931Z,18.40
2018-07-04T00:26:00.393Z,18.40
2018-07-04T00:28:39.960Z,18.40
2018-07-04T00:31:19.534Z,18.40
2018-07-04T00:36:32.795Z,18.40
2018-07-04T00:39:12.349Z,18.40
2018-07-04T00:41:51.861Z,18.50
2018-07-04T00:47:05.877Z,18.60
2018-07-04T00:49:45.365Z,18.60
2018-07-04T00:52:25.497Z,18.60
2018-07-04T00:55:05.718Z,18.60
2018-07-04T00:57:45.423Z,18.60
2018-07-04T01:00:24.891Z,18.60
2018-07-04T01:03:04.442Z,18.60
2018-07-04T01:05:44.067Z,18.50
2018-07-04T01:08:23.595Z,18.50
2018-07-04T01:11:03.238Z,18.50
2018-07-04T01:13:42.786Z,18.40
2018-07-04T01:16:22.370Z,18.40
2018-07-04T01:19:02.058Z,18.30
2018-07-04T01:21:41.672Z,18.20
2018-07-04T01:24:21.370Z,18.20
2018-07-04T01:27:00.920Z,18.10
2018-07-04T01:29:40.377Z,18.10
2018-07-04T01:32:19.877Z,18.10
2018-07-04T01:34:59.546Z,18.30
2018-07-04T01:37:39.171Z,18.30
2018-07-04T01:40:18.729Z,18.20
2018-07-04T01:42:58.299Z,18.10
2018-07-04T01:45:37.810Z,18.20
2018-07-04T01:48:17.345Z,18.20
2018-07-04T01:50:57.059Z,18.20
2018-07-04T01:53:36.746Z,18.20
2018-07-04T01:56:16.322Z,18.20
2018-07-04T01:58:56.138Z,18.00
2018-07-04T02:01:35.778Z,18.10
2018-07-04T02:04:15.520Z,18.00
2018-07-04T02:06:55.040Z,18.00
2018-07-04T02:09:34.644Z,18.00
2018-07-04T02:12:14.274Z,18.10
2018-07-04T02:14:53.931Z,18.00
2018-07-04T02:17:33.443Z,18.00
2018-07-04T02:20:12.985Z,17.90
2018-07-04T02:22:52.535Z,17.90
2018-07-04T02:25:32.166Z,17.80
2018-07-04T02:28:11.756Z,17.80
2018-07-04T02:30:51.385Z,17.80
2018-07-04T02:33:30.903Z,17.80
2018-07-04T02:36:10.549Z,17.80
2018-07-04T02:38:50.110Z,17.70
2018-07-04T02:41:29.655Z,17.70
2018-07-04T02:46:43.171Z,17.60
2018-07-04T02:49:22.782Z,17.60
2018-07-04T02:52:02.299Z,17.60
2018-07-04T02:54:41.995Z,17.60
2018-07-04T02:57:21.515Z,17.50
2018-07-04T03:00:01.043Z,17.50
2018-07-04T03:02:40.767Z,17.50
2018-07-04T03:05:21.543Z,17.50
2018-07-04T03:08:01.197Z,17.50
2018-07-04T03:10:40.774Z,17.50
2018-07-04T03:13:20.426Z,17.60
2018-07-04T03:15:59.996Z,17.60
2018-07-04T03:18:39.433Z,17.60
2018-07-04T03:21:19.074Z,17.60
2018-07-04T03:23:58.822Z,17.60
2018-07-04T03:26:38.512Z,17.60
2018-07-04T03:29:18.038Z,17.50
2018-07-04T03:31:57.644Z,17.50
2018-07-04T03:34:37.288Z,17.40
2018-07-04T03:37:16.828Z,17.30
2018-07-04T03:39:56.406Z,17.30
2018-07-04T03:42:36.109Z,17.30
2018-07-04T03:45:15.613Z,17.20
2018-07-04T03:47:55.269Z,17.30
2018-07-04T03:50:34.972Z,17.20
2018-07-04T03:53:14.509Z,17.30
2018-07-04T03:55:54.003Z,17.20
2018-07-04T03:58:33.697Z,17.20
2018-07-04T04:01:13.419Z,17.20
2018-07-04T04:03:52.887Z,17.20
2018-07-04T04:06:32.470Z,17.30
2018-07-04T04:09:12.030Z,17.30
2018-07-04T04:11:51.561Z,17.30
2018-07-04T04:14:31.181Z,17.30
2018-07-04T04:17:10.902Z,17.40
2018-07-04T04:19:50.463Z,17.30
2018-07-04T04:22:30.024Z,17.30
2018-07-04T04:25:09.630Z,17.30
2018-07-04T04:27:49.129Z,17.20
2018-07-04T04:30:28.687Z,17.20
2018-07-04T04:33:08.242Z,17.20
2018-07-04T04:35:47.915Z,17.10
2018-07-04T04:38:27.642Z,17.10
2018-07-04T04:41:07.301Z,17.20
2018-07-04T04:43:46.979Z,17.20
2018-07-04T04:46:26.567Z,17.30
2018-07-04T04:49:06.118Z,17.20
2018-07-04T04:51:45.592Z,17.20
2018-07-04T04:54:25.144Z,17.20
2018-07-04T04:57:04.674Z,17.20
2018-07-04T04:59:44.346Z,17.20
2018-07-04T05:02:23.978Z,17.20
2018-07-04T05:05:03.664Z,17.20
2018-07-04T05:07:43.668Z,17.20
2018-07-04T05:10:23.902Z,17.20
2018-07-04T05:13:03.350Z,17.20
2018-07-04T05:15:43.035Z,17.30
2018-07-04T05:18:22.541Z,17.30
2018-07-04T05:21:02.097Z,17.40
2018-07-04T05:23:41.877Z,17.40
2018-07-04T05:26:21.909Z,17.50
2018-07-04T05:29:01.463Z,17.50
2018-07-04T05:31:41.189Z,17.60
2018-07-04T05:34:20.611Z,17.60
2018-07-04T05:37:00.321Z,17.70
2018-07-04T05:39:39.953Z,17.70
2018-07-04T05:42:19.609Z,17.80
2018-07-04T05:44:59.337Z,17.90
2018-07-04T05:47:38.876Z,18.00
2018-07-04T05:50:18.467Z,18.10
2018-07-04T05:52:58.177Z,18.10
2018-07-04T05:55:37.877Z,18.20
2018-07-04T05:58:17.645Z,18.30
2018-07-04T06:00:57.188Z,18.40
2018-07-04T06:03:37.705Z,18.40
2018-07-04T06:06:17.333Z,18.50
2018-07-04T06:08:57.115Z,18.60
2018-07-04T06:11:36.658Z,18.70
2018-07-04T06:14:16.243Z,18.70
2018-07-04T06:16:55.795Z,18.80
2018-07-04T06:19:35.400Z,18.90
2018-07-04T06:22:14.910Z,19.00
2018-07-04T06:24:54.435Z,19.00
2018-07-04T06:27:33.976Z,19.10
2018-07-04T06:30:13.709Z,19.10
2018-07-04T06:32:53.332Z,19.20
2018-07-04T06:35:32.956Z,19.30
2018-07-04T06:38:00.269Z,19.40
2018-07-04T06:40:27.635Z,19.40
2018-07-04T06:42:54.941Z,19.50
2018-07-04T06:45:22.246Z,19.50
2018-07-04T06:47:49.579Z,19.60
2018-07-04T06:50:16.876Z,19.60
2018-07-04T06:52:44.172Z,19.70
2018-07-04T06:55:11.485Z,20.00
2018-07-04T06:57:38.795Z,20.30
2018-07-04T07:00:06.097Z,20.50
2018-07-04T07:02:33.800Z,20.70
2018-07-04T07:05:13.317Z,20.80
2018-07-04T07:07:52.845Z,20.90
2018-07-04T07:10:32.503Z,20.90
2018-07-04T07:13:11.949Z,20.80
2018-07-04T07:15:51.627Z,20.70
2018-07-04T07:18:31.162Z,20.70
2018-07-04T07:21:10.796Z,20.80
2018-07-04T07:23:50.483Z,20.80
2018-07-04T07:26:29.930Z,21.00
2018-07-04T07:29:09.542Z,21.10
2018-07-04T07:31:49.272Z,21.40
2018-07-04T07:34:28.846Z,21.50
2018-07-04T07:37:08.416Z,21.60
2018-07-04T07:39:47.908Z,21.60
2018-07-04T07:42:27.563Z,21.70
2018-07-04T07:45:07.154Z,21.90
2018-07-04T07:47:46.694Z,22.00
2018-07-04T07:50:26.427Z,22.00
2018-07-04T07:53:05.984Z,22.10
2018-07-04T07:55:45.450Z,22.10
2018-07-04T07:58:25.024Z,22.10
2018-07-04T08:01:04.576Z,22.00
2018-07-04T08:03:44.315Z,21.90
2018-07-04T08:06:24.005Z,21.90
2018-07-04T08:09:04.708Z,22.00
2018-07-04T08:11:44.334Z,22.10
2018-07-04T08:14:23.763Z,22.10
2018-07-04T08:17:03.354Z,22.10
2018-07-04T08:19:42.930Z,22.20
2018-07-04T08:22:22.582Z,22.30
2018-07-04T08:25:02.230Z,22.20
2018-07-04T08:27:42.077Z,22.10
2018-07-04T08:30:21.587Z,22.00
2018-07-04T08:33:01.196Z,22.00
2018-07-04T08:35:41.060Z,22.00
2018-07-04T08:38:20.870Z,22.10
2018-07-04T08:41:00.410Z,22.30
2018-07-04T08:43:39.995Z,22.40
2018-07-04T08:46:19.821Z,22.60
2018-07-04T08:49:00.071Z,22.70
2018-07-04T08:54:37.199Z,22.90
2018-07-04T09:04:01.209Z,23.40
2018-07-04T09:06:40.888Z,23.50
2018-07-04T09:09:20.700Z,23.50
2018-07-04T09:14:48.360Z,23.50
2018-07-04T09:17:30.124Z,23.60
2018-07-04T09:20:09.820Z,23.80
2018-07-04T09:22:49.820Z,23.80
2018-07-04T09:25:29.122Z,23.80
2018-07-04T09:31:03.617Z,24.00
2018-07-04T09:33:43.332Z,24.00
2018-07-04T09:36:24.166Z,24.10
2018-07-04T09:39:08.974Z,24.10
2018-07-04T09:41:48.702Z,24.20
2018-07-04T09:44:28.526Z,24.30
2018-07-04T09:47:08.616Z,24.40
2018-07-04T09:50:02.372Z,24.40
2018-07-04T09:52:55.424Z,24.40
2018-07-04T09:55:35.382Z,24.40
2018-07-04T09:58:15.313Z,24.50
2018-07-04T10:01:04.168Z,24.50
2018-07-04T10:03:46.168Z,24.60
2018-07-04T10:09:16.342Z,24.70
2018-07-04T10:14:43.755Z,24.90
2018-07-04T10:17:24.783Z,25.00
2018-07-04T10:20:07.464Z,25.10
2018-07-04T10:22:47.386Z,25.20
2018-07-04T10:25:27.097Z,25.30
2018-07-04T10:28:06.805Z,25.50
2018-07-04T10:30:51.175Z,25.60
2018-07-04T10:33:30.842Z,25.70
2018-07-04T10:36:10.368Z,25.80
2018-07-04T10:38:49.906Z,25.80
2018-07-04T10:41:29.468Z,25.80
2018-07-04T10:44:09.571Z,25.90
2018-07-04T10:46:49.251Z,26.10
2018-07-04T10:49:28.938Z,26.30
2018-07-04T10:52:09.244Z,26.30
2018-07-04T10:54:48.842Z,26.40
2018-07-04T10:57:28.390Z,26.50
2018-07-04T11:00:08.014Z,26.60
2018-07-04T11:02:47.592Z,26.70
2018-07-04T11:05:27.152Z,26.70
2018-07-04T11:08:06.786Z,26.70
2018-07-04T11:10:46.200Z,26.70
2018-07-04T11:13:25.886Z,26.70
2018-07-04T11:16:05.556Z,26.60
2018-07-04T11:18:45.055Z,26.60
2018-07-04T11:21:24.598Z,26.70
2018-07-04T11:24:04.284Z,26.80
2018-07-04T11:26:43.797Z,27.00
2018-07-04T11:29:23.496Z,27.10
2018-07-04T11:32:03.185Z,27.10
2018-07-04T11:34:42.759Z,27.20
2018-07-04T11:37:22.705Z,27.40
2018-07-04T11:42:36.875Z,27.70
2018-07-04T11:45:16.425Z,27.90
2018-07-04T11:47:43.730Z,27.90
2018-07-04T11:50:11.053Z,27.90
2018-07-04T11:52:38.373Z,28.00
2018-07-04T11:55:05.700Z,28.10
2018-07-04T11:57:33.021Z,28.20
2018-07-04T12:00:00.329Z,28.40
2018-07-04T12:02:27.638Z,28.20
2018-07-04T12:05:07.110Z,28.10
2018-07-04T12:07:34.417Z,28.20
2018-07-04T12:12:29.631Z,28.40
2018-07-04T12:14:56.944Z,28.50
2018-07-04T12:17:24.245Z,28.50
2018-07-04T12:19:51.575Z,28.60
2018-07-04T12:22:18.885Z,28.70
2018-07-04T12:24:46.213Z,28.80
2018-07-04T12:27:13.527Z,28.90
2018-07-04T12:29:41.235Z,29.00
2018-07-04T12:32:08.550Z,29.00
2018-07-04T12:34:35.884Z,29.00
2018-07-04T12:37:03.392Z,29.10
2018-07-04T12:39:30.702Z,29.10
2018-07-04T12:41:58.050Z,29.20
2018-07-04T12:44:25.355Z,29.30
2018-07-04T12:46:52.664Z,29.40
2018-07-04T12:49:27.377Z,29.60
2018-07-04T12:51:55.269Z,29.60
2018-07-04T12:54:27.984Z,29.40
2018-07-04T12:57:07.504Z,29.20
2018-07-04T12:59:47.558Z,29.10
2018-07-04T13:02:28.682Z,29.20
2018-07-04T13:07:59.984Z,29.50
2018-07-04T13:10:42.941Z,29.40
2018-07-04T13:13:23.091Z,29.30
2018-07-04T13:16:02.842Z,29.20
2018-07-04T13:18:44.613Z,29.30
2018-07-04T13:21:24.203Z,29.70
2018-07-04T13:24:04.106Z,30.00
2018-07-04T13:26:46.035Z,30.00
2018-07-04T13:29:29.889Z,29.80
2018-07-04T13:32:12.555Z,29.60
2018-07-04T13:34:54.231Z,29.40
2018-07-04T13:37:33.878Z,29.40
2018-07-04T13:40:19.147Z,29.40
2018-07-04T13:42:59.365Z,29.30
2018-07-04T13:45:39.604Z,29.30
2018-07-04T13:48:20.384Z,29.30
2018-07-04T13:51:00.159Z,29.20
2018-07-04T13:53:39.825Z,29.10
2018-07-04T13:56:19.394Z,29.10
2018-07-04T13:58:58.882Z,29.30
2018-07-04T14:01:38.562Z,29.30
2018-07-04T14:04:18.153Z,29.20
2018-07-04T14:06:57.841Z,29.10
2018-07-04T14:09:37.377Z,29.30
2018-07-04T14:12:16.885Z,29.60
2018-07-04T14:14:56.797Z,29.50
2018-07-04T14:17:36.318Z,29.50
2018-07-04T14:20:15.926Z,29.50
2018-07-04T14:22:55.493Z,29.30
2018-07-04T14:25:35.134Z,29.10
2018-07-04T14:28:15.318Z,29.10
2018-07-04T14:33:28.980Z,30.00
2018-07-04T14:36:08.510Z,30.10
2018-07-04T14:38:47.964Z,30.00
2018-07-04T14:41:27.646Z,29.90
2018-07-04T14:44:07.374Z,30.00
2018-07-04T14:46:47.719Z,30.10
2018-07-04T14:49:27.280Z,30.30
2018-07-04T14:52:07.206Z,30.40
2018-07-04T14:54:46.847Z,30.40
2018-07-04T14:57:27.150Z,30.40
2018-07-04T15:00:06.675Z,30.70
2018-07-04T15:02:46.160Z,30.90
2018-07-04T15:05:25.635Z,30.90
2018-07-04T15:08:05.349Z,31.10
2018-07-04T15:10:45.047Z,31.00
2018-07-04T15:13:24.591Z,30.90
2018-07-04T15:16:05.647Z,31.00
2018-07-04T15:18:45.221Z,31.10
2018-07-04T15:21:25.193Z,31.10
2018-07-04T15:24:04.767Z,30.90
2018-07-04T15:26:44.395Z,31.00
2018-07-04T15:29:24.039Z,31.10
2018-07-04T15:32:03.761Z,31.20
2018-07-04T15:34:43.315Z,31.20
2018-07-04T15:37:22.803Z,31.20
2018-07-04T15:40:02.346Z,31.20
2018-07-04T15:42:41.832Z,31.20
2018-07-04T15:45:21.380Z,31.20
2018-07-04T15:48:00.921Z,31.10
2018-07-04T15:50:40.550Z,30.90
2018-07-04T15:53:20.170Z,30.80
2018-07-04T15:55:59.870Z,30.80
2018-07-04T15:58:39.469Z,31.00
2018-07-04T16:01:18.973Z,31.30
2018-07-04T16:03:58.520Z,31.20
2018-07-04T16:06:38.120Z,31.10
2018-07-04T16:09:17.624Z,31.00
2018-07-04T16:11:57.315Z,30.90
2018-07-04T16:14:36.843Z,30.80
2018-07-04T16:17:16.404Z,30.80
2018-07-04T16:19:55.989Z,31.00
2018-07-04T16:22:35.675Z,30.90
2018-07-04T16:25:15.261Z,30.90
2018-07-04T16:27:54.835Z,31.00
2018-07-04T16:30:34.513Z,31.00
2018-07-04T16:33:14.231Z,31.00
2018-07-04T16:35:53.721Z,30.90
2018-07-04T16:38:33.479Z,31.00
2018-07-04T16:41:12.977Z,31.10
2018-07-04T16:43:52.527Z,31.30
2018-07-04T16:46:32.185Z,31.40
2018-07-04T16:49:11.680Z,31.30
2018-07-04T16:51:51.337Z,31.20
2018-07-04T16:54:30.883Z,31.30
2018-07-04T16:57:10.415Z,31.20
2018-07-04T16:59:49.897Z,31.20
2018-07-04T17:02:29.450Z,31.20
2018-07-04T17:05:09.111Z,31.10
2018-07-04T17:07:48.805Z,31.00
2018-07-04T17:13:02.222Z,31.10
2018-07-04T17:15:41.928Z,30.80
2018-07-04T17:18:21.916Z,30.80
2018-07-04T17:21:01.564Z,30.50
2018-07-04T17:23:41.121Z,30.40
2018-07-04T17:26:20.772Z,30.10
2018-07-04T17:29:02.068Z,29.90
2018-07-04T17:31:41.580Z,29.70
2018-07-04T17:34:21.245Z,29.50
2018-07-04T17:37:00.776Z,29.50
2018-07-04T17:41:09.474Z,29.40
2018-07-04T17:43:49.048Z,29.50
2018-07-04T17:46:28.688Z,29.70
2018-07-04T17:49:08.306Z,29.90
2018-07-04T17:51:47.867Z,30.10
2018-07-04T17:54:27.596Z,30.00
2018-07-04T17:57:07.304Z,29.90
2018-07-04T17:59:46.872Z,29.90
2018-07-04T18:02:26.393Z,29.90
2018-07-04T18:05:06.097Z,29.80
2018-07-04T18:07:46.448Z,29.60
2018-07-04T18:10:26.119Z,29.40
2018-07-04T18:13:05.627Z,29.40
2018-07-04T18:15:46.131Z,29.30
2018-07-04T18:18:25.786Z,29.20
2018-07-04T18:21:10.785Z,29.00
2018-07-04T18:23:50.948Z,29.00
2018-07-04T18:26:31.325Z,29.10
2018-07-04T18:29:11.213Z,29.10
2018-07-04T18:31:51.459Z,29.10
2018-07-04T18:34:31.127Z,28.90
2018-07-04T18:37:11.032Z,28.70
2018-07-04T18:42:24.407Z,28.30
2018-07-04T18:45:04.308Z,28.20
2018-07-04T18:47:43.913Z,28.10
2018-07-04T18:50:23.865Z,27.90
2018-07-04T18:53:03.525Z,27.80
2018-07-04T18:55:43.164Z,27.70
2018-07-04T18:58:23.153Z,27.80
2018-07-04T19:01:02.741Z,27.70
2018-07-04T19:03:42.496Z,27.50
2018-07-04T19:06:22.176Z,27.50
2018-07-04T19:09:02.151Z,27.40
2018-07-04T19:11:41.654Z,27.20
2018-07-04T19:14:21.214Z,26.90
2018-07-04T19:17:00.823Z,26.70
2018-07-04T19:19:41.114Z,26.30
2018-07-04T19:22:20.699Z,26.00
2018-07-04T19:25:00.247Z,25.80
2018-07-04T19:27:40.856Z,25.60
2018-07-04T19:30:20.494Z,25.40
2018-07-04T19:33:00.900Z,25.20
2018-07-04T19:35:40.485Z,25.00
2018-07-04T19:38:20.075Z,24.70
2018-07-04T19:43:33.132Z,23.90
2018-07-04T19:46:12.719Z,23.60
2018-07-04T19:48:52.274Z,23.40
2018-07-04T19:51:32.018Z,23.20
2018-07-04T19:54:11.625Z,23.00
2018-07-04T19:56:51.316Z,22.90
2018-07-04T19:59:30.864Z,22.70
2018-07-04T20:02:10.461Z,22.50
2018-07-04T20:04:50.009Z,22.40
2018-07-04T20:07:29.722Z,22.30
2018-07-04T20:10:09.321Z,22.20
2018-07-04T20:12:48.875Z,22.10
2018-07-04T20:15:28.649Z,22.00
2018-07-04T20:18:08.180Z,21.90
2018-07-04T20:20:47.752Z,21.80
2018-07-04T20:23:27.211Z,21.70
2018-07-04T20:26:06.935Z,21.60
2018-07-04T20:28:46.657Z,21.50
2018-07-04T20:31:26.186Z,21.50
2018-07-04T20:34:05.887Z,21.50
2018-07-04T20:36:45.487Z,21.40
2018-07-04T20:39:25.033Z,21.40
2018-07-04T20:42:04.691Z,21.40
2018-07-04T20:44:44.464Z,21.40
2018-07-04T20:47:24.054Z,21.40
2018-07-04T20:50:03.490Z,21.40
2018-07-04T20:52:43.077Z,21.30
2018-07-04T20:55:22.648Z,21.20
2018-07-04T20:58:02.349Z,21.10
2018-07-04T21:00:42.704Z,20.90
2018-07-04T21:03:22.484Z,20.80
2018-07-04T21:06:02.080Z,20.70
2018-07-04T21:08:41.888Z,20.70
2018-07-04T21:11:21.603Z,20.60
2018-07-04T21:14:02.010Z,20.70
2018-07-04T21:16:42.650Z,20.70
2018-07-04T21:19:22.219Z,20.60
2018-07-04T21:24:35.924Z,20.50
2018-07-04T21:27:15.605Z,20.40
2018-07-04T21:29:55.158Z,20.50
2018-07-04T21:32:36.458Z,20.50
2018-07-04T21:35:15.976Z,20.50
2018-07-04T21:37:55.515Z,20.50
2018-07-04T21:40:35.081Z,20.50
2018-07-04T21:43:14.558Z,20.50
2018-07-04T21:45:54.294Z,20.40
2018-07-04T21:48:34.027Z,20.40
2018-07-04T21:51:13.642Z,20.20
2018-07-04T21:53:53.163Z,20.20
2018-07-04T21:56:32.649Z,20.20
2018-07-04T21:59:12.163Z,20.30
2018-07-04T22:01:52.010Z,20.40
2018-07-04T22:04:31.691Z,20.50
2018-07-04T22:07:12.158Z,20.40
2018-07-04T22:09:51.786Z,20.40
2018-07-04T22:12:31.465Z,20.40
2018-07-04T22:15:10.961Z,20.40
2018-07-04T22:17:50.526Z,20.30
2018-07-04T22:20:30.001Z,20.20
2018-07-04T22:23:09.507Z,20.10
2018-07-04T22:25:49.193Z,20.00
2018-07-04T22:28:28.862Z,20.00
2018-07-04T22:31:08.396Z,19.90
2018-07-04T22:33:48.888Z,19.80
2018-07-04T22:36:28.501Z,19.80
2018-07-04T22:39:08.000Z,19.70
2018-07-04T22:41:47.650Z,19.70
2018-07-04T22:44:27.363Z,19.60
2018-07-04T22:47:07.064Z,19.60
2018-07-04T22:49:46.551Z,19.60
2018-07-04T22:52:26.134Z,19.60
2018-07-04T22:55:05.836Z,19.60
2018-07-04T22:57:45.394Z,19.60
2018-07-04T23:00:24.994Z,19.60
2018-07-04T23:03:04.585Z,19.60
2018-07-04T23:05:44.122Z,19.50
2018-07-04T23:08:23.723Z,19.40
2018-07-04T23:11:03.310Z,19.40
2018-07-04T23:13:42.887Z,19.30
2018-07-04T23:16:22.497Z,19.20
2018-07-04T23:19:02.127Z,19.30
2018-07-04T23:21:41.648Z,19.30
2018-07-04T23:24:21.348Z,19.30
2018-07-04T23:27:00.917Z,19.20
2018-07-04T23:29:40.383Z,19.20
2018-07-04T23:32:20.079Z,19.10
2018-07-04T23:34:59.770Z,19.00
2018-07-04T23:37:39.433Z,19.00
2018-07-04T23:40:19.142Z,18.90
2018-07-04T23:42:58.819Z,18.90
2018-07-04T23:45:38.398Z,18.80
2018-07-04T23:48:18.121Z,18.80
2018-07-04T23:50:57.755Z,18.70
2018-07-04T23:53:37.411Z,18.70
2018-07-04T23:56:16.911Z,18.60
2018-07-04T23:58:56.509Z,18.60
